Time;durP1;ratioP1;P1;durP2;ratioP2;P2;SDS_P1;SDS_P2;PMS_P1;PMS_P2;Temp;Humidity;BMP_temperature;BMP_pressure;BME280_temperature;BME280_humidity;BME280_pressure;Samples;Min_cycle;Max_cycle;Signal;HPM_P1;HPM_P2
2022/09/27 00:00:41;;;;;;;4.82;1.00;;;41.30;18.40;;;;;;4985097;28;20029;-65
2022/09/27 00:03:09;;;;;;;3.00;0.90;;;41.30;18.30;;;;;;5005514;28;20070;-66
2022/09/27 00:05:36;;;;;;;3.38;0.80;;;41.30;18.60;;;;;;5000027;28;20109;-64
2022/09/27 00:08:03;;;;;;;7.18;0.90;;;41.20;18.60;;;;;;5002195;28;21600;-64
2022/09/27 00:10:29;;;;;;;4.07;0.73;;;41.10;18.90;;;;;;4999343;28;20041;-64
2022/09/27 00:12:57;;;;;;;4.53;1.00;;;41.10;19.00;;;;;;5001359;28;20041;-65
2022/09/27 00:15:23;;;;;;;3.40;0.82;;;41.00;18.40;;;;;;4999247;28;20028;-65
2022/09/27 00:17:50;;;;;;;2.88;0.60;;;40.90;19.50;;;;;;5000892;28;20026;-64
2022/09/27 00:20:19;;;;;;;3.72;0.77;;;40.90;19.70;;;;;;5001683;28;20021;-65
2022/09/27 00:22:47;;;;;;;5.53;1.10;;;40.80;19.90;;;;;;5008644;28;20037;-65
2022/09/27 00:25:14;;;;;;;2.08;0.90;;;40.70;19.60;;;;;;5005841;28;20022;-65
2022/09/27 00:27:41;;;;;;;2.85;0.90;;;40.60;19.00;;;;;;5001027;28;20033;-65
2022/09/27 00:30:08;;;;;;;10.40;0.80;;;40.50;18.40;;;;;;5000851;28;20096;-69
2022/09/27 00:32:34;;;;;;;7.07;0.98;;;40.40;19.20;;;;;;5006508;28;20022;-70
2022/09/27 00:35:01;;;;;;;3.53;0.70;;;40.30;18.70;;;;;;5000230;28;20022;-63
2022/09/27 00:37:28;;;;;;;5.85;0.60;;;40.30;20.30;;;;;;5003620;28;20026;-67
2022/09/27 00:39:54;;;;;;;7.97;0.90;;;40.10;20.00;;;;;;5002490;28;20027;-68
2022/09/27 00:42:20;;;;;;;6.45;0.98;;;40.00;19.80;;;;;;5005415;28;20021;-67
2022/09/27 00:45:04;;;;;;;5.18;0.68;;;39.90;20.60;;;;;;5005758;28;20084;-67
2022/09/27 00:47:49;;;;;;;6.22;1.00;;;39.90;20.50;;;;;;5001755;28;20105;-64
2022/09/27 00:50:24;;;;;;;11.68;1.08;;;39.70;20.60;;;;;;5007411;28;20075;-70
2022/09/27 00:53:16;;;;;;;17.98;1.35;;;39.60;20.40;;;;;;5003225;28;20026;-66
2022/09/27 00:55:53;;;;;;;9.52;1.13;;;39.50;20.40;;;;;;5003592;28;20046;-64
2022/09/27 00:58:23;;;;;;;7.00;1.30;;;39.40;21.10;;;;;;5003133;28;20374;-66
2022/09/27 01:00:54;;;;;;;9.63;1.17;;;39.30;21.20;;;;;;5000368;28;20453;-66
2022/09/27 01:03:45;;;;;;;8.85;0.95;;;39.20;20.60;;;;;;5001974;28;20504;-65
2022/09/27 01:06:12;;;;;;;5.72;1.00;;;39.00;21.70;;;;;;5001081;28;20135;-65
2022/09/27 01:08:39;;;;;;;8.93;1.27;;;38.90;21.30;;;;;;5005207;28;20029;-65
2022/09/27 01:11:14;;;;;;;5.75;1.08;;;38.80;21.60;;;;;;5003588;28;20018;-66
2022/09/27 01:14:01;;;;;;;6.55;1.00;;;38.60;20.50;;;;;;5004249;28;20044;-65
2022/09/27 01:16:55;;;;;;;11.57;1.23;;;38.50;20.40;;;;;;5003333;28;20077;-65
2022/09/27 01:19:45;;;;;;;3.83;1.10;;;38.40;21.40;;;;;;5003424;28;20030;-66
2022/09/27 01:22:23;;;;;;;10.52;1.10;;;38.30;21.00;;;;;;4999514;28;20085;-67
2022/09/27 01:24:54;;;;;;;8.40;1.20;;;38.20;21.70;;;;;;5002657;28;20034;-63
2022/09/27 01:27:45;;;;;;;8.55;1.40;;;38.10;21.20;;;;;;5000399;28;20033;-66
2022/09/27 01:30:39;;;;;;;12.48;1.60;;;37.90;22.20;;;;;;5003519;28;20026;-66
2022/09/27 01:33:18;;;;;;;10.05;1.50;;;37.70;22.40;;;;;;5004419;28;20081;-68
2022/09/27 01:36:20;;;;;;;16.40;1.92;;;37.60;22.50;;;;;;5001306;28;20057;-66
2022/09/27 01:39:05;;;;;;;14.55;1.95;;;37.50;22.10;;;;;;5002800;28;20026;-69
2022/09/27 01:41:42;;;;;;;10.30;1.85;;;37.30;22.80;;;;;;5000813;28;20030;-68
2022/09/27 01:44:31;;;;;;;18.83;1.50;;;37.20;23.30;;;;;;5003666;28;20038;-66
2022/09/27 01:47:06;;;;;;;12.75;1.80;;;37.10;23.40;;;;;;5002799;28;20030;-66
2022/09/27 01:49:58;;;;;;;14.52;2.10;;;36.90;23.80;;;;;;5001869;28;20031;-66
2022/09/27 01:52:41;;;;;;;22.02;2.42;;;36.80;24.60;;;;;;4989447;28;20363;-66
2022/09/27 01:55:12;;;;;;;27.05;2.63;;;36.70;24.00;;;;;;5002155;28;20414;-67
2022/09/27 01:57:42;;;;;;;25.88;2.70;;;36.50;24.20;;;;;;5000851;28;20105;-66
2022/09/27 02:00:11;;;;;;;19.33;2.58;;;36.40;25.20;;;;;;4999950;28;20030;-65
2022/09/27 02:02:52;;;;;;;29.10;2.35;;;36.30;25.10;;;;;;5003409;28;20471;-63
2022/09/27 02:05:22;;;;;;;26.85;2.80;;;36.20;25.00;;;;;;5000163;28;20034;-67
2022/09/27 02:07:56;;;;;;;20.83;2.40;;;36.10;25.00;;;;;;5003924;28;20153;-66
2022/09/27 02:10:27;;;;;;;18.42;2.75;;;36.00;25.10;;;;;;5006560;28;20033;-66
2022/09/27 02:13:25;;;;;;;22.30;2.90;;;35.90;25.90;;;;;;5001140;28;20022;-64
2022/09/27 02:16:25;;;;;;;25.13;2.92;;;35.80;25.90;;;;;;5005216;28;20014;-65
2022/09/27 02:19:14;;;;;;;37.90;3.95;;;35.70;26.00;;;;;;4999452;28;20088;-68
2022/09/27 02:22:00;;;;;;;39.60;4.28;;;35.60;26.20;;;;;;5003562;28;20080;-67
2022/09/27 02:24:40;;;;;;;28.17;4.15;;;35.50;26.40;;;;;;4999531;28;20056;-65
2022/09/27 02:27:15;;;;;;;35.58;4.68;;;35.40;27.20;;;;;;5003722;28;20511;-67
2022/09/27 02:29:49;;;;;;;41.75;5.43;;;35.30;26.90;;;;;;4991798;28;20030;-64
2022/09/27 02:32:16;;;;;;;38.35;5.35;;;35.20;26.10;;;;;;5003315;28;20510;-66
2022/09/27 02:34:44;;;;;;;22.50;5.25;;;35.10;26.50;;;;;;4999071;28;20041;-65
2022/09/27 02:37:11;;;;;;;32.90;5.38;;;35.00;26.30;;;;;;5002835;28;20022;-69
2022/09/27 02:39:40;;;;;;;20.85;4.75;;;35.00;26.40;;;;;;4999283;28;20022;-67
2022/09/27 02:42:07;;;;;;;25.60;4.95;;;34.90;26.20;;;;;;5001833;28;20018;-64
2022/09/27 02:44:33;;;;;;;24.13;5.53;;;34.90;26.10;;;;;;5004119;28;20036;-64
2022/09/27 02:47:26;;;;;;;47.55;5.75;;;34.80;26.50;;;;;;5002443;28;20022;-68
2022/09/27 02:50:00;;;;;;;34.50;6.55;;;34.70;26.60;;;;;;5006268;28;20660;-65
2022/09/27 02:52:49;;;;;;;51.63;7.55;;;34.70;27.40;;;;;;4998922;28;20041;-67
2022/09/27 02:56:11;;;;;;;52.00;6.95;;;34.60;27.20;;;;;;4986008;28;20661;-67
2022/09/27 02:59:02;;;;;;;50.70;7.75;;;34.60;28.30;;;;;;4971223;28;20116;-65
2022/09/27 03:01:37;;;;;;;58.17;6.95;;;34.50;28.50;;;;;;5005639;28;20109;-66
2022/09/27 03:04:28;;;;;;;43.80;7.75;;;34.40;28.50;;;;;;4999891;28;20087;-64
2022/09/27 03:06:57;;;;;;;52.35;8.07;;;34.30;28.60;;;;;;4995811;28;20022;-66
2022/09/27 03:09:27;;;;;;;48.17;6.88;;;34.20;28.80;;;;;;4998855;28;20511;-64
2022/09/27 03:11:54;;;;;;;48.20;7.38;;;34.20;28.80;;;;;;5001012;28;20038;-70
2022/09/27 03:14:21;;;;;;;65.47;7.88;;;34.10;29.00;;;;;;5001455;28;20169;-70
2022/09/27 03:16:47;;;;;;;68.80;8.40;;;34.10;28.60;;;;;;5001715;28;20034;-66
2022/09/27 03:19:13;;;;;;;70.85;7.93;;;34.00;29.20;;;;;;5001994;28;20101;-65
2022/09/27 03:21:40;;;;;;;63.05;8.30;;;34.00;30.00;;;;;;5000006;28;20041;-61
2022/09/27 03:24:06;;;;;;;73.40;8.75;;;34.00;30.00;;;;;;5002975;28;20076;-61
2022/09/27 03:26:32;;;;;;;56.88;8.23;;;33.90;29.40;;;;;;4999229;28;20112;-60
2022/09/27 03:28:59;;;;;;;57.67;7.53;;;33.80;29.50;;;;;;4996830;28;20027;-63
2022/09/27 03:31:25;;;;;;;46.03;7.40;;;33.80;29.30;;;;;;5004369;28;20058;-62
2022/09/27 03:33:51;;;;;;;57.85;6.93;;;33.80;28.80;;;;;;5004178;28;20029;-63
2022/09/27 03:36:18;;;;;;;46.50;8.35;;;33.70;28.60;;;;;;5003418;28;20406;-61
2022/09/27 03:38:44;;;;;;;49.88;8.30;;;33.70;28.40;;;;;;4999330;28;20105;-64
2022/09/27 03:41:11;;;;;;;41.17;9.05;;;33.60;28.90;;;;;;5002179;28;20559;-63
2022/09/27 03:43:37;;;;;;;52.03;9.32;;;33.60;29.90;;;;;;5000450;28;20034;-62
2022/09/27 03:46:04;;;;;;;54.05;9.85;;;33.50;30.00;;;;;;5005378;28;20064;-62
2022/09/27 03:48:30;;;;;;;47.20;10.20;;;33.40;29.20;;;;;;5000847;28;20060;-61
2022/09/27 03:50:57;;;;;;;46.95;9.75;;;33.30;29.20;;;;;;5003206;28;20026;-63
2022/09/27 03:53:23;;;;;;;59.35;10.10;;;33.20;29.50;;;;;;5000101;28;20042;-61
2022/09/27 03:55:50;;;;;;;77.90;10.38;;;33.20;29.30;;;;;;4999999;28;20392;-62
2022/09/27 03:58:16;;;;;;;79.30;10.85;;;33.10;30.50;;;;;;4998582;28;20409;-62
2022/09/27 04:00:44;;;;;;;48.75;9.68;;;33.10;29.70;;;;;;4997366;28;20495;-61
2022/09/27 04:03:11;;;;;;;68.13;11.07;;;33.00;29.70;;;;;;5000989;28;20041;-64
2022/09/27 04:05:37;;;;;;;67.28;11.30;;;33.00;29.60;;;;;;4998627;28;20076;-62
2022/09/27 04:08:05;;;;;;;44.08;9.38;;;33.00;29.40;;;;;;5004050;28;20022;-61
2022/09/27 04:10:31;;;;;;;68.93;11.63;;;33.00;29.50;;;;;;5004960;28;20036;-61
2022/09/27 04:12:57;;;;;;;60.95;12.32;;;32.90;30.20;;;;;;5005988;28;20360;-61
2022/09/27 04:15:25;;;;;;;68.22;11.85;;;32.90;31.00;;;;;;5006371;28;20431;-61
2022/09/27 04:17:52;;;;;;;53.50;10.55;;;32.90;30.70;;;;;;5003952;28;20029;-61
2022/09/27 04:20:18;;;;;;;62.65;11.23;;;32.80;30.60;;;;;;5005376;28;20058;-64
2022/09/27 04:22:45;;;;;;;53.47;12.02;;;32.70;31.40;;;;;;5002713;28;20022;-63
2022/09/27 04:25:11;;;;;;;54.65;10.88;;;32.70;31.50;;;;;;5003756;28;20100;-62
2022/09/27 04:27:39;;;;;;;49.28;11.02;;;32.70;32.00;;;;;;5005512;28;20080;-62
2022/09/27 04:30:06;;;;;;;67.70;11.27;;;32.70;32.20;;;;;;5007169;28;20026;-61
2022/09/27 04:32:33;;;;;;;64.88;11.98;;;32.60;32.70;;;;;;5003446;28;20038;-62
2022/09/27 04:37:45;;;;;;;73.30;14.60;;;32.60;32.80;;;;;;4999707;28;20038;-60
2022/09/27 04:40:11;;;;;;;103.90;15.60;;;32.60;34.60;;;;;;5003118;28;20026;-62
2022/09/27 04:42:38;;;;;;;104.20;14.73;;;32.60;34.30;;;;;;4998300;28;20031;-64
2022/09/27 04:45:05;;;;;;;89.35;14.57;;;32.50;33.90;;;;;;5003142;28;20036;-61
2022/09/27 04:49:00;;;;;;;95.90;16.00;;;32.40;33.00;;;;;;5090975;27;20425;-62
2022/09/27 04:51:27;;;;;;;85.90;16.00;;;32.40;33.30;;;;;;5091293;28;20270;-64
2022/09/27 04:53:55;;;;;;;109.05;16.67;;;32.30;33.20;;;;;;5095648;28;20423;-64
2022/09/27 04:56:21;;;;;;;99.32;17.42;;;32.30;33.20;;;;;;5097889;28;20384;-63
2022/09/27 04:58:47;;;;;;;106.63;19.50;;;32.30;32.70;;;;;;5093834;28;20034;-63
2022/09/27 05:01:14;;;;;;;119.78;20.83;;;32.20;32.20;;;;;;5096018;28;20020;-65
2022/09/27 05:03:40;;;;;;;103.22;20.38;;;32.20;32.20;;;;;;5092026;28;20099;-63
2022/09/27 05:06:07;;;;;;;111.05;19.33;;;32.10;32.20;;;;;;5094594;28;20020;-63
2022/09/27 05:08:33;;;;;;;106.45;20.17;;;32.10;32.60;;;;;;5096483;28;20481;-62
2022/09/27 05:11:00;;;;;;;95.97;18.80;;;32.00;32.60;;;;;;5096021;28;20104;-62
2022/09/27 05:13:26;;;;;;;91.90;18.63;;;32.00;33.20;;;;;;5091532;28;20077;-62
2022/09/27 05:15:53;;;;;;;116.55;19.90;;;32.00;35.60;;;;;;5097532;28;20020;-63
2022/09/27 05:18:19;;;;;;;93.18;17.65;;;31.90;34.50;;;;;;5083738;28;20103;-64
2022/09/27 05:20:46;;;;;;;103.82;18.38;;;31.90;33.60;;;;;;5094869;28;20035;-62
2022/09/27 05:23:12;;;;;;;80.05;16.27;;;31.80;34.40;;;;;;5089988;28;20024;-63
2022/09/27 05:25:39;;;;;;;97.47;17.08;;;31.80;33.60;;;;;;5095252;28;20081;-63
2022/09/27 05:28:05;;;;;;;105.97;15.85;;;31.80;33.00;;;;;;5091221;28;20036;-62
2022/09/27 05:30:32;;;;;;;99.90;16.13;;;31.80;33.10;;;;;;5094848;28;20024;-61
2022/09/27 05:32:58;;;;;;;91.28;15.57;;;31.80;32.80;;;;;;5083521;28;20035;-61
2022/09/27 05:35:25;;;;;;;85.18;15.40;;;31.80;32.70;;;;;;5096634;28;20027;-62
2022/09/27 05:37:56;;;;;;;105.18;33.95;;;31.80;32.60;;;;;;5091674;28;20032;-64
2022/09/27 05:40:24;;;;;;;76.32;24.10;;;31.70;32.80;;;;;;5088464;28;20046;-62
2022/09/27 05:42:54;;;;;;;102.57;20.95;;;31.60;32.90;;;;;;5092759;28;20027;-62
2022/09/27 05:45:22;;;;;;;83.55;15.10;;;31.60;32.90;;;;;;5093092;28;20032;-61
2022/09/27 05:47:56;;;;;;;82.45;15.25;;;31.60;32.40;;;;;;5097058;28;20089;-63
2022/09/27 05:50:24;;;;;;;96.65;14.98;;;31.60;32.90;;;;;;5087435;28;20020;-63
2022/09/27 05:52:50;;;;;;;100.68;16.00;;;31.50;32.50;;;;;;5081187;28;20028;-61
2022/09/27 05:55:17;;;;;;;97.45;15.48;;;31.50;32.50;;;;;;5083911;28;20107;-62
2022/09/27 05:57:54;;;;;;;91.45;14.65;;;31.40;33.00;;;;;;5084353;28;20078;-61
2022/09/27 06:00:21;;;;;;;77.72;15.68;;;31.40;33.70;;;;;;5069653;28;20486;-61
2022/09/27 06:02:58;;;;;;;92.75;14.90;;;31.30;33.00;;;;;;5070267;28;20028;-61
2022/09/27 06:05:26;;;;;;;82.07;13.93;;;31.30;33.00;;;;;;5068506;28;20074;-64
2022/09/27 06:07:59;;;;;;;92.80;15.20;;;31.20;32.90;;;;;;5070188;28;20021;-64
2022/09/27 06:10:25;;;;;;;80.07;14.32;;;31.20;33.00;;;;;;5069031;28;20028;-62
2022/09/27 06:12:51;;;;;;;79.30;14.00;;;31.10;33.10;;;;;;5068212;28;20028;-63
2022/09/27 06:15:18;;;;;;;82.35;15.88;;;31.10;33.00;;;;;;5067274;28;20024;-64
2022/09/27 06:17:44;;;;;;;78.57;15.02;;;31.10;32.90;;;;;;5067151;28;20089;-63
2022/09/27 06:20:11;;;;;;;75.30;14.63;;;31.10;33.40;;;;;;5067210;28;20025;-64
2022/09/27 06:22:37;;;;;;;77.88;15.82;;;31.00;32.90;;;;;;5070301;28;20040;-62
2022/09/27 06:25:04;;;;;;;92.78;16.50;;;31.00;33.60;;;;;;5070929;28;20025;-62
2022/09/27 06:27:31;;;;;;;79.95;14.63;;;31.00;32.90;;;;;;5073584;28;20024;-64
2022/09/27 06:29:58;;;;;;;84.60;14.43;;;30.90;33.20;;;;;;5078158;28;20020;-64
2022/09/27 06:32:24;;;;;;;72.85;15.85;;;30.80;33.90;;;;;;5076651;28;20028;-61
2022/09/27 06:34:51;;;;;;;73.10;16.30;;;30.90;33.90;;;;;;5074029;28;20051;-64
2022/09/27 06:37:17;;;;;;;78.22;16.17;;;30.80;33.50;;;;;;5076288;28;20123;-63
2022/09/27 06:39:44;;;;;;;69.82;15.75;;;30.80;33.50;;;;;;5075601;28;20021;-62
2022/09/27 06:42:10;;;;;;;81.25;16.38;;;30.70;35.20;;;;;;5080213;28;20031;-62
2022/09/27 06:44:36;;;;;;;76.63;16.42;;;30.70;35.30;;;;;;5082446;28;20023;-63
2022/09/27 06:47:03;;;;;;;74.35;16.05;;;30.70;35.60;;;;;;5079239;28;20035;-62
2022/09/27 06:49:29;;;;;;;66.53;14.20;;;30.60;34.80;;;;;;5080964;28;20016;-61
2022/09/27 06:51:56;;;;;;;68.40;15.18;;;30.60;34.00;;;;;;5077532;28;20404;-62
2022/09/27 06:54:22;;;;;;;76.93;16.33;;;30.50;33.90;;;;;;5075969;28;20051;-61
2022/09/27 06:56:48;;;;;;;68.95;14.80;;;30.50;33.50;;;;;;5077781;28;20396;-61
2022/09/27 07:02:00;;;;;;;75.07;15.38;;;30.40;33.70;;;;;;5082148;28;20048;-64
2022/09/27 07:04:27;;;;;;;60.47;14.55;;;30.40;34.00;;;;;;5078686;28;20370;-63
2022/09/27 07:06:54;;;;;;;69.78;14.63;;;30.40;33.90;;;;;;5073454;28;20035;-62
2022/09/27 07:09:20;;;;;;;64.15;14.13;;;30.30;34.30;;;;;;5074543;28;20056;-62
2022/09/27 07:11:47;;;;;;;60.40;14.80;;;30.30;34.70;;;;;;5076384;28;20380;-64
2022/09/27 07:14:15;;;;;;;62.80;14.07;;;30.20;35.30;;;;;;5080453;28;20024;-64
2022/09/27 07:16:42;;;;;;;56.05;13.68;;;30.20;34.70;;;;;;5078442;28;20021;-61
2022/09/27 07:19:10;;;;;;;49.20;12.23;;;30.10;36.00;;;;;;5071147;28;20098;-61
2022/09/27 07:21:36;;;;;;;61.83;11.48;;;30.10;34.50;;;;;;5079121;28;20099;-63
2022/09/27 07:24:03;;;;;;;48.55;10.90;;;30.00;36.70;;;;;;5077814;28;20043;-62
2022/09/27 07:26:29;;;;;;;46.38;9.57;;;30.10;33.80;;;;;;5072808;28;20465;-61
2022/09/27 07:28:56;;;;;;;32.33;8.50;;;30.10;33.80;;;;;;5076014;28;20550;-61
2022/09/27 07:31:23;;;;;;;35.90;6.55;;;30.20;33.70;;;;;;5076885;28;20377;-61
2022/09/27 07:33:51;;;;;;;41.72;5.45;;;30.20;32.40;;;;;;5072999;28;20173;-62
2022/09/27 07:36:18;;;;;;;19.42;4.30;;;30.20;31.50;;;;;;5074497;28;20024;-63
2022/09/27 07:38:44;;;;;;;29.00;4.85;;;30.30;31.70;;;;;;5080462;28;20439;-62
2022/09/27 07:41:13;;;;;;;18.02;4.28;;;30.30;31.60;;;;;;5081902;28;20020;-62
2022/09/27 07:43:43;;;;;;;20.00;3.80;;;30.40;30.70;;;;;;5076422;28;20042;-62
2022/09/27 07:46:09;;;;;;;16.75;3.95;;;30.40;31.40;;;;;;5078263;28;20072;-64
2022/09/27 07:48:36;;;;;;;24.10;3.53;;;30.40;30.00;;;;;;5077097;28;20040;-61
2022/09/27 07:51:03;;;;;;;21.73;3.40;;;30.40;30.40;;;;;;5076448;28;20111;-62
2022/09/27 07:53:29;;;;;;;29.15;3.92;;;30.40;29.60;;;;;;5076630;28;20024;-61
2022/09/27 07:55:56;;;;;;;15.95;3.90;;;30.30;29.60;;;;;;5073796;28;20496;-64
2022/09/27 07:58:22;;;;;;;19.05;3.30;;;30.30;30.00;;;;;;5077800;28;20039;-61
2022/09/27 08:00:48;;;;;;;17.48;3.50;;;30.20;31.10;;;;;;5075262;28;20035;-64
2022/09/27 08:03:16;;;;;;;17.88;2.90;;;30.20;30.60;;;;;;5079501;28;20029;-60
2022/09/27 08:05:44;;;;;;;10.02;2.88;;;30.30;31.80;;;;;;5076821;28;20028;-64
2022/09/27 08:08:10;;;;;;;17.55;4.10;;;30.20;31.50;;;;;;5073076;28;20056;-61
2022/09/27 08:10:42;;;;;;;17.42;6.05;;;30.10;30.00;;;;;;5071026;28;20029;-61
2022/09/27 08:13:10;;;;;;;14.75;3.47;;;30.20;30.20;;;;;;5075754;28;20024;-61
2022/09/27 08:15:39;;;;;;;10.73;2.75;;;30.00;30.90;;;;;;5080001;28;20016;-61
2022/09/27 08:18:08;;;;;;;12.85;1.85;;;30.00;31.40;;;;;;5072014;28;20025;-63
2022/09/27 08:20:35;;;;;;;20.50;2.08;;;30.00;32.20;;;;;;5070722;28;20516;-59
2022/09/27 08:23:03;;;;;;;23.60;1.90;;;29.90;31.60;;;;;;5072890;28;20028;-63
2022/09/27 08:25:29;;;;;;;13.73;2.17;;;29.90;31.50;;;;;;5075032;28;20024;-63
2022/09/27 08:28:02;;;;;;;9.70;1.67;;;29.90;31.90;;;;;;5072628;28;20063;-63
2022/09/27 08:30:31;;;;;;;10.00;1.48;;;30.00;32.00;;;;;;5077825;28;20039;-62
2022/09/27 08:32:59;;;;;;;4.97;1.20;;;29.90;31.20;;;;;;5075648;28;21424;-63
2022/09/27 08:35:27;;;;;;;10.75;1.40;;;29.80;31.70;;;;;;5072616;28;20046;-59
2022/09/27 08:38:01;;;;;;;5.18;1.23;;;29.80;31.30;;;;;;5077498;28;20025;-62
2022/09/27 08:40:46;;;;;;;6.82;0.98;;;29.70;31.20;;;;;;5077237;28;20028;-60
2022/09/27 08:43:36;;;;;;;4.68;0.98;;;29.80;31.00;;;;;;5074800;28;20032;-63
2022/09/27 08:46:24;;;;;;;3.13;0.88;;;29.80;30.50;;;;;;5075408;28;20084;-61
2022/09/27 08:48:58;;;;;;;5.07;0.90;;;29.80;30.70;;;;;;5073663;28;20033;-60
2022/09/27 08:51:29;;;;;;;5.45;1.02;;;29.90;30.50;;;;;;5077771;28;20099;-60
2022/09/27 08:54:10;;;;;;;4.47;0.90;;;30.00;31.20;;;;;;5077641;28;20059;-62
2022/09/27 08:56:37;;;;;;;4.03;1.00;;;30.00;31.10;;;;;;5074010;28;20025;-60
2022/09/27 08:59:14;;;;;;;7.65;0.90;;;30.00;30.70;;;;;;5074346;28;20497;-62
2022/09/27 09:01:41;;;;;;;6.38;1.35;;;30.10;31.10;;;;;;5071358;28;20027;-60
2022/09/27 09:04:09;;;;;;;6.57;1.10;;;30.20;31.90;;;;;;5075795;28;20021;-62
2022/09/27 09:06:51;;;;;;;5.72;0.90;;;30.50;31.80;;;;;;5070456;28;20437;-62
2022/09/27 09:09:20;;;;;;;4.43;0.88;;;30.80;31.10;;;;;;5069187;28;20108;-61
2022/09/27 09:15:00;;;;;;;5.40;1.15;;;31.20;30.50;;;;;;5067250;28;20035;-62
2022/09/27 09:17:32;;;;;;;3.72;1.10;;;31.50;30.60;;;;;;5068487;28;20031;-61
2022/09/27 09:20:03;;;;;;;6.97;1.15;;;31.40;30.50;;;;;;5065216;28;20029;-61
2022/09/27 09:22:56;;;;;;;16.55;1.38;;;31.50;31.10;;;;;;5065097;28;20036;-61
2022/09/27 09:25:27;;;;;;;5.28;1.13;;;31.50;31.00;;;;;;5073826;28;20029;-61
2022/09/27 09:28:26;;;;;;;6.47;1.00;;;31.40;30.70;;;;;;5073618;28;20116;-62
2022/09/27 09:31:03;;;;;;;7.50;0.90;;;31.70;30.60;;;;;;5045271;28;20501;-61
2022/09/27 09:33:43;;;;;;;8.48;1.23;;;31.80;29.70;;;;;;5069053;28;20033;-60
2022/09/27 09:36:24;;;;;;;5.72;1.33;;;31.70;30.50;;;;;;5077317;28;20036;-62
2022/09/27 09:39:14;;;;;;;6.47;1.60;;;31.70;30.50;;;;;;5073755;28;20031;-61
2022/09/27 09:41:56;;;;;;;4.25;1.23;;;31.70;30.20;;;;;;5075584;28;20472;-62
2022/09/27 09:44:53;;;;;;;9.05;1.42;;;31.70;30.40;;;;;;5083649;28;20080;-61
2022/09/27 09:47:37;;;;;;;6.30;1.40;;;31.60;30.00;;;;;;5074463;28;20040;-60
2022/09/27 09:50:13;;;;;;;21.52;2.00;;;31.40;30.20;;;;;;5079268;28;20016;-61
2022/09/27 09:52:49;;;;;;;13.50;2.47;;;31.40;30.00;;;;;;5080942;28;20032;-61
2022/09/27 09:55:27;;;;;;;10.63;1.92;;;31.40;31.50;;;;;;5072459;28;20029;-61
2022/09/27 09:58:12;;;;;;;10.63;1.90;;;31.40;31.40;;;;;;5076958;28;20478;-60
2022/09/27 10:00:40;;;;;;;15.07;3.45;;;31.20;31.30;;;;;;5085466;28;20040;-61
2022/09/27 10:03:07;;;;;;;16.48;2.35;;;31.20;31.20;;;;;;5070047;28;20036;-61
2022/09/27 10:05:34;;;;;;;12.43;1.95;;;31.00;31.60;;;;;;5074021;28;20024;-63
2022/09/27 10:08:03;;;;;;;9.02;1.98;;;30.90;31.50;;;;;;5072932;28;21358;-61
2022/09/27 10:10:30;;;;;;;10.10;1.40;;;30.90;32.50;;;;;;5071310;28;20476;-61
2022/09/27 10:12:56;;;;;;;7.82;1.83;;;30.90;32.90;;;;;;5080093;28;20020;-63
2022/09/27 10:15:27;;;;;;;6.63;1.75;;;30.80;34.70;;;;;;5075746;28;20153;-63
2022/09/27 10:17:57;;;;;;;13.48;2.08;;;30.70;32.80;;;;;;5080163;28;20154;-62
2022/09/27 10:20:31;;;;;;;11.07;1.75;;;30.70;33.10;;;;;;5069453;28;20098;-62
2022/09/27 10:23:16;;;;;;;8.45;1.65;;;30.50;33.20;;;;;;5068528;28;20024;-62
2022/09/27 10:25:52;;;;;;;8.75;1.92;;;30.30;34.70;;;;;;5077454;28;20377;-62
2022/09/27 10:28:42;;;;;;;10.63;1.63;;;30.30;35.10;;;;;;5073976;28;20525;-61
2022/09/27 10:31:14;;;;;;;7.20;1.80;;;30.30;33.40;;;;;;5074138;28;20415;-62
2022/09/27 10:34:04;;;;;;;8.32;1.60;;;30.30;33.20;;;;;;5075359;28;20099;-63
2022/09/27 10:36:33;;;;;;;11.85;1.70;;;30.30;33.20;;;;;;5078525;28;20489;-61
2022/09/27 10:39:04;;;;;;;12.10;1.83;;;30.20;33.40;;;;;;5075009;28;20028;-62
2022/09/27 10:41:38;;;;;;;8.98;2.10;;;30.20;33.70;;;;;;5069255;28;20029;-62
2022/09/27 10:44:16;;;;;;;6.15;1.33;;;30.10;33.80;;;;;;5073442;28;20439;-62
2022/09/27 10:46:45;;;;;;;11.48;2.20;;;30.10;35.00;;;;;;5080579;28;20052;-62
2022/09/27 10:49:35;;;;;;;9.38;1.80;;;30.00;35.80;;;;;;5074172;28;20028;-63
2022/09/27 10:52:04;;;;;;;14.13;2.45;;;29.90;35.70;;;;;;5070220;28;20104;-61
2022/09/27 10:54:38;;;;;;;8.88;2.25;;;29.80;34.90;;;;;;5073113;28;20073;-62
2022/09/27 10:57:14;;;;;;;11.52;2.20;;;29.70;36.70;;;;;;5076161;28;20415;-60
2022/09/27 10:59:44;;;;;;;11.80;2.17;;;29.50;35.60;;;;;;5069768;28;20025;-60
2022/09/27 11:02:38;;;;;;;15.05;2.40;;;29.50;35.60;;;;;;5068715;28;20043;-62
2022/09/27 11:05:14;;;;;;;13.05;2.63;;;29.30;34.40;;;;;;5074308;28;20056;-61
2022/09/27 11:07:52;;;;;;;11.70;2.40;;;29.30;35.30;;;;;;5072165;28;20024;-62
2022/09/27 11:10:33;;;;;;;11.38;2.60;;;29.40;36.00;;;;;;5069734;28;20025;-62
2022/09/27 11:13:19;;;;;;;15.98;2.78;;;29.30;35.00;;;;;;5068846;28;20465;-62
2022/09/27 11:15:54;;;;;;;16.30;3.22;;;29.40;34.70;;;;;;5074479;28;21610;-61
2022/09/27 11:18:30;;;;;;;10.93;2.42;;;29.30;35.90;;;;;;5070093;28;20080;-63
2022/09/27 11:21:18;;;;;;;25.98;3.53;;;29.30;35.20;;;;;;5068578;28;20039;-62
2022/09/27 11:24:20;;;;;;;30.40;3.75;;;29.20;35.60;;;;;;5066219;28;20116;-63
2022/09/27 11:27:14;;;;;;;16.30;3.05;;;29.30;36.40;;;;;;5066610;28;20033;-61
2022/09/27 11:30:03;;;;;;;15.95;3.60;;;29.30;36.00;;;;;;5032226;28;20045;-59
2022/09/27 11:32:53;;;;;;;20.58;3.53;;;29.30;35.50;;;;;;5033111;28;20037;-63
2022/09/27 11:35:33;;;;;;;19.50;3.63;;;29.20;35.20;;;;;;5029330;28;20041;-61
2022/09/27 11:37:59;;;;;;;15.73;3.15;;;29.30;35.20;;;;;;5029096;28;20037;-63
2022/09/27 11:40:28;;;;;;;18.13;3.10;;;29.30;35.20;;;;;;5027589;28;20124;-63
2022/09/27 11:43:15;;;;;;;17.77;2.78;;;29.20;35.30;;;;;;5035447;28;20070;-63
2022/09/27 11:45:41;;;;;;;19.42;3.53;;;29.10;35.10;;;;;;5039172;28;20036;-62
2022/09/27 11:48:13;;;;;;;22.52;3.63;;;29.10;35.40;;;;;;5034790;28;20045;-63
2022/09/27 11:50:52;;;;;;;16.55;3.58;;;29.10;35.30;;;;;;5035613;28;20025;-61
2022/09/27 11:53:18;;;;;;;21.85;3.50;;;29.10;36.20;;;;;;5029350;28;20049;-61
2022/09/27 11:55:58;;;;;;;20.85;3.97;;;29.20;36.30;;;;;;5028719;28;20080;-63
2022/09/27 11:58:25;;;;;;;18.25;3.50;;;29.10;37.00;;;;;;5027800;28;20139;-63
2022/09/27 12:01:26;;;;;;;19.05;3.70;;;29.10;36.00;;;;;;5030359;28;20411;-61
2022/09/27 12:04:14;;;;;;;16.85;3.17;;;29.10;35.90;;;;;;5003974;28;20052;-63
2022/09/27 12:06:56;;;;;;;18.10;3.55;;;29.00;36.00;;;;;;5051010;28;20048;-61
2022/09/27 12:09:32;;;;;;;11.73;3.13;;;29.00;36.00;;;;;;5076813;28;20065;-62
2022/09/27 12:12:09;;;;;;;17.50;3.17;;;29.00;36.00;;;;;;5068533;28;20028;-63
2022/09/27 12:14:41;;;;;;;13.73;2.72;;;29.00;37.20;;;;;;5073171;28;20036;-63
2022/09/27 12:17:35;;;;;;;16.98;3.22;;;28.90;37.00;;;;;;5080710;28;20024;-61
2022/09/27 12:20:34;;;;;;;21.13;3.90;;;28.90;36.10;;;;;;5072401;28;20020;-61
2022/09/27 12:23:32;;;;;;;28.95;4.05;;;28.90;37.00;;;;;;5065086;28;20033;-63
2022/09/27 12:26:05;;;;;;;20.10;3.50;;;28.80;37.50;;;;;;5068323;28;20031;-61
2022/09/27 12:28:40;;;;;;;21.15;3.25;;;28.70;37.10;;;;;;5070253;28;20028;-62
2022/09/27 12:31:29;;;;;;;14.57;3.22;;;28.70;37.20;;;;;;5072163;28;20020;-62
2022/09/27 12:34:14;;;;;;;16.92;2.75;;;28.80;37.00;;;;;;5067342;28;20028;-63
2022/09/27 12:36:47;;;;;;;14.40;3.55;;;28.70;38.10;;;;;;5074405;28;20044;-62
2022/09/27 12:39:26;;;;;;;18.40;3.15;;;28.70;37.90;;;;;;5071662;28;20028;-63
2022/09/27 12:42:04;;;;;;;26.63;4.00;;;28.70;37.30;;;;;;5074857;28;20086;-62
2022/09/27 12:44:40;;;;;;;19.08;3.10;;;28.60;37.20;;;;;;5074176;28;20481;-63
2022/09/27 12:47:12;;;;;;;22.63;3.40;;;28.60;37.40;;;;;;5067366;28;20053;-63
2022/09/27 12:50:03;;;;;;;16.05;3.00;;;28.60;37.20;;;;;;5071742;28;20053;-61
2022/09/27 12:52:34;;;;;;;23.08;3.00;;;28.60;38.00;;;;;;5069869;28;20032;-63
2022/09/27 12:55:25;;;;;;;17.70;3.03;;;28.60;38.70;;;;;;5073533;28;20147;-63
2022/09/27 12:58:10;;;;;;;18.65;3.30;;;28.60;38.60;;;;;;5071745;28;20029;-62
2022/09/27 13:00:50;;;;;;;14.30;2.55;;;28.50;39.20;;;;;;5068195;28;20021;-62
2022/09/27 13:03:22;;;;;;;25.15;3.38;;;28.40;39.90;;;;;;5071401;28;20426;-61
2022/09/27 13:06:15;;;;;;;22.58;3.20;;;28.30;39.80;;;;;;5069563;28;20526;-64
2022/09/27 13:09:37;;;;;;;27.77;3.60;;;28.10;39.60;;;;;;5072658;28;20032;-62
2022/09/27 13:12:18;;;;;;;26.70;3.85;;;27.90;39.40;;;;;;5033759;28;20034;-62
2022/09/27 13:14:56;;;;;;;20.73;4.53;;;28.00;40.50;;;;;;5070822;28;20040;-62
2022/09/27 13:17:48;;;;;;;23.55;4.93;;;28.10;39.40;;;;;;5072089;28;20024;-61